Flight Track Log - Related Links

Times and Time Zones

All times are in EDT time to prevent confusion due to time zone crossing. See the EGF3711 flight status page for this flight to view local times or setup timezone preferences in your user account.

Time Position Orientation Groundspeed Altitude Reporting Facility
EDT Latitude Longitude Course Direction KTS MPH feet Rate Location/Type
Thu 12:24:20 PM 41.9667 -87.9833 254° West 197 227 2,900  Level Chicago TRACON
Thu 12:25:20 PM 41.9500 -88.0667 255° West 247 284 4,900 2,203 Climbing Chicago TRACON
Thu 12:26:00 PM 41.8886 -88.2905 255° West  Level FlightAware Approximate
Thu 12:26:28 PM 41.9533 -88.1700 273° West 252 290 7,600  Level Chicago Center
Thu 12:27:00 PM 41.8471 -88.4147 255° West  Level FlightAware Approximate
Thu 12:27:30 PM 41.9497 -88.2672 267° West 264 304 10,100  Level Chicago Center
Thu 12:28:00 PM 41.8194 -88.5464 254° West  Level FlightAware Approximate
Thu 12:28:33 PM 41.9458 -88.4006 268° West 298 343 11,500  Level Chicago Center
Thu 12:29:00 PM 41.7904 -88.6775 254° West  Level FlightAware Approximate
Thu 12:29:35 PM 41.9444 -88.5242 269° West 327 376 12,600  Level Chicago Center
Thu 12:30:37 PM 41.9417 -88.6575 268° West 354 407 13,700 1,016 Climbing Chicago Center
Thu 12:31:39 PM 41.9400 -88.7964 269° West 372 428 14,700 1,161 Climbing Chicago Center
Thu 12:32:41 PM 41.9086 -88.9247 252° West 368 423 16,100 1,452 Climbing Chicago Center
Thu 12:33:43 PM 41.8600 -89.0733 246° West 366 421 17,700 1,452 Climbing Chicago Center
Thu 12:34:45 PM 41.8181 -89.1956 245° Southwest 364 419 19,100 1,161 Climbing Chicago Center
Thu 12:35:47 PM 41.7761 -89.3203 246° West 369 425 20,100 968 Climbing Chicago Center
Thu 12:36:49 PM 41.7317 -89.4514 246° West 384 442 21,100 919 Climbing Chicago Center
Thu 12:37:51 PM 41.6869 -89.5822 245° Southwest 396 456 22,000 1,016 Climbing Chicago Center
Thu 12:38:53 PM 41.6303 -89.7500 246° West 405 466 23,200 1,065 Climbing Chicago Center
Thu 12:39:55 PM 41.5844 -89.8867 246° West 410 472 24,200 968 Climbing Chicago Center
Thu 12:40:57 PM 41.5369 -90.0247 245° Southwest 412 474 25,200 919 Climbing Chicago Center
Thu 12:41:59 PM 41.5158 -90.1731 259° West 412 474 26,100 912 Climbing Chicago Center
Thu 12:43:02 PM 41.4936 -90.3222 259° West 409 471 27,100 1,056 Climbing Chicago Center
Thu 12:44:04 PM 41.4675 -90.4992 259° West 409 471 28,300 1,016 Climbing Chicago Center
Thu 12:45:06 PM 41.4419 -90.6453 257° West 407 468 29,200 816 Climbing Chicago Center
Thu 12:46:09 PM 41.4183 -90.7917 258° West 406 467 30,000 387 Climbing Chicago Center
Thu 12:47:10 PM 41.3908 -90.9419 256° West 414 476 30,000  Level Chicago Center
Thu 12:48:12 PM 41.3164 -91.0794 234° Southwest 447 514 30,000  Level Chicago Center
Thu 12:49:14 PM 41.2400 -91.2131 233° Southwest 453 521 30,000  Level Chicago Center
Thu 12:50:16 PM 41.1464 -91.3725 232° Southwest 457 526 30,000  Level Chicago Center
Thu 12:51:18 PM 41.0706 -91.5036 233° Southwest 451 519 30,000  Level Chicago Center
Thu 12:52:20 PM 40.9958 -91.6292 232° Southwest 439 505 30,000  Level Chicago Center
Thu 12:53:22 PM 40.9217 -91.7575 233° Southwest 439 505 30,000  Level Chicago Center
Thu 12:54:24 PM 40.8453 -91.8847 232° Southwest 444 511 30,000  Level Chicago Center
Thu 12:55:26 PM 40.7536 -92.0411 232° Southwest 449 517 30,000  Level Chicago Center
Thu 12:56:28 PM 40.6772 -92.1697 232° Southwest 450 518 30,000  Level Chicago Center
Thu 12:57:31 PM 40.6003 -92.2981 232° Southwest 451 519 30,000  Level Chicago Center
Thu 12:58:10 PM 40.5500 -92.3800 231° Southwest 453 521 30,000  Level Kansas City Center
Thu 12:59:12 PM 40.4728 -92.5114 232° Southwest 454 522 30,000  Level Kansas City Center
Thu 01:00:14 PM 40.3778 -92.6683 232° Southwest 457 526 30,000 -97 Level Kansas City Center
Thu 01:01:16 PM 40.3031 -92.7883 231° Southwest 451 519 29,800 -1,403 Descending Kansas City Center
Thu 01:02:18 PM 40.2164 -92.9300 231° Southwest 446 513 27,100 -2,516 Descending Kansas City Center
Thu 01:03:20 PM 40.1406 -93.0547 232° Southwest 448 516 24,600 -2,371 Descending Kansas City Center
Thu 01:04:22 PM 40.0642 -93.1794 231° Southwest 445 512 22,200 -2,352 Descending Kansas City Center
Thu 01:05:25 PM 39.9903 -93.2978 231° Southwest 431 496 19,700 -2,160 Descending Kansas City Center
Thu 01:06:27 PM 39.9189 -93.4122 231° Southwest 416 479 17,700 -1,984 Descending Kansas City Center
Thu 01:07:29 PM 39.8367 -93.5450 231° Southwest 400 460 15,600 -1,694 Descending Kansas City Center
Thu 01:08:31 PM 39.7703 -93.6517 231° Southwest 385 443 14,200 -1,355 Descending Kansas City Center
Thu 01:09:33 PM 39.6997 -93.7661 231° Southwest 383 441 12,800 -1,210 Descending Kansas City Center
Thu 01:10:35 PM 39.6581 -93.8781 244° Southwest 362 417 11,700 -1,113 Descending Kansas City Center
Thu 01:11:37 PM 39.6153 -94.0103 247° West 357 411 10,500 -726 Descending Kansas City Center
Thu 01:12:39 PM 39.5789 -94.1181 246° West 343 395 10,200 -677 Descending Kansas City Center
Thu 01:13:41 PM 39.5442 -94.2206 246° West 277 319 9,100 -1,210 Descending Kansas City Center
Thu 01:14:43 PM 39.5164 -94.3014 246° West 258 297 7,700 -1,452 Descending Kansas City Center
Thu 01:15:45 PM 39.4844 -94.3950 246° West 255 293 6,100 -919 Descending Kansas City Center
Thu 01:16:47 PM 39.4564 -94.4750 246° West 254 292 5,800 -290 Descending Kansas City Center

Login

Don't have an account? Register now (free) for customized features, flight alerts, and more!